Lynn, Wisconsin
Current Conditions -  °F | °C
As of 8:54 PM on Wednesday 26 Nov 2014 (Local Time) from KMFI Reporting Station
Overcast Overcast  
Wind Chill: 13°   Ceiling: 2700
Heat Index: 22°   Visibility: 9mi
Dew Point: 18°   Wind: 8mph
Humidity: 85%   Direction: 310°NW
Pressure: 30.18"   Gusts: NA
Location:  44.5388°N, 90.4382°W
Report Text: KMFI 270254Z AUTO 31007KT 9SM OVC027 M06/M08 A3018 RMK AO2 SNE09 SLP242 P0000 60000 T10561078 51004
Loading
Personal Weather Stations






























Interactive Weather Map New forecast layout! Learn more

10-Day Weather Forecast

Advertisements
Track Severe Weather on mobile